Rochester, NY

5:49 PM EDT on June 03, 2015 (GMT -0400)
Laurelton Area | | Change Station
CLOSE
Current Station
Personal Weather Station
Location: Rochester, NY
Elevation: 469 ft
Nearby Weather Stations

Elev 469 ft 43.17 °N, 77.55 °W | Updated 46 seconds ago

Clear
Clear
65.5 °F
Feels Like 65.5 °F
N
4.0
Wind Variable Wind from NE
Gusts 17.0 mph

Today
High -- | Low -- °F
--% Chance of Precip.
Yesterday
High -- | Low -- °F
Precip. -- in
5:32 AM 8:44 PM
Full, 98% visible
Pressure 30.16 in
Visibility 10.0 miles
Clouds Few 20000 ft
Dew Point 51 °F
Humidity 59%
Rainfall 0.00 in
Snow Depth Not available.
UV 5 out of 12
Pollen 9.30 out of 12
Air Quality Not available.
Flu Activity Sporadic
METAR KROC 032054Z 10011KT 10SM FEW200 22/08 A3015 RMK AO2 SLP212 T02220078 56016

More Conditions Fewer Conditions

Pressure 30.16 in
Visibility 10.0 miles
Clouds Few 20000 ft
Dew Point 51 °F
Humidity 59%
Rainfall 0.00 in
Snow Depth Not available.
UV 5 out of 12
Pollen 9.30 out of 12
Air Quality Not available.
Flu Activity Sporadic
METAR KROC 032054Z 10011KT 10SM FEW200 22/08 A3015 RMK AO2 SLP212 T02220078 56016

More Conditions Fewer Conditions

10-Day Weather Forecast

Almanac

Astronomy

Jun. 03, 2015 Rise Set
Actual Time
Civil Twilight
Nautical Twilight
Astronomical Twilight
Moon
Length of Visible Light
Length of Day
Tomorrow will be .
, % of the Moon is Illuminated

Today's Extremes

State Highs State Lows

Community

WunderPhotos

Upload Photos

1,826,291 photos uploaded!

WunderBlogs® & News

Nearby

Air Quality

  Air Quality AQ Index Pollutant
Not available.

Snow Depth

Station Depth Elevation

Earthquake Activity

City Distance Mag. Time & Date
Minimum magnitude displayed is 2.5.

Coastal Water Temperatures

Place Temperature

Stations

Nearby Weather Stations

Station Location Temp. Windchill Dew Point Humidity Wind Precip. Elev Updated Type